createdAt,value
2022-12-18T00:00:08.149Z,-7.90
2022-12-18T00:02:40.737Z,-7.90
2022-12-18T00:05:08.166Z,-8.00
2022-12-18T00:07:34.914Z,-8.00
2022-12-18T00:10:01.686Z,-7.90
2022-12-18T00:12:30.008Z,-7.90
2022-12-18T00:14:57.062Z,-7.90
2022-12-18T00:17:24.404Z,-7.90
2022-12-18T00:19:51.102Z,-7.90
2022-12-18T00:22:17.732Z,-7.90
2022-12-18T00:24:44.370Z,-7.90
2022-12-18T00:27:10.914Z,-7.90
2022-12-18T00:29:37.512Z,-7.90
2022-12-18T00:32:06.888Z,-7.90
2022-12-18T00:34:33.532Z,-7.90
2022-12-18T00:37:00.239Z,-8.00
2022-12-18T00:39:27.016Z,-8.00
2022-12-18T00:42:12.444Z,-8.00
2022-12-18T00:44:40.093Z,-8.00
2022-12-18T00:47:07.208Z,-8.00
2022-12-18T00:49:33.800Z,-8.00
2022-12-18T00:52:00.535Z,-8.10
2022-12-18T00:54:27.565Z,-8.10
2022-12-18T00:56:56.013Z,-8.10
2022-12-18T00:59:22.676Z,-8.10
2022-12-18T01:01:51.056Z,-8.20
2022-12-18T01:04:17.889Z,-8.20
2022-12-18T01:06:45.964Z,-8.20
2022-12-18T01:09:13.059Z,-8.20
2022-12-18T01:11:40.483Z,-8.20
2022-12-18T01:14:07.209Z,-8.20
2022-12-18T01:16:33.800Z,-8.20
2022-12-18T01:19:00.680Z,-8.30
2022-12-18T01:21:27.857Z,-8.30
2022-12-18T01:23:55.463Z,-8.30
2022-12-18T01:26:24.275Z,-8.30
2022-12-18T01:28:54.283Z,-8.30
2022-12-18T01:31:24.408Z,-8.30
2022-12-18T01:33:51.397Z,-8.30
2022-12-18T01:36:22.306Z,-8.30
2022-12-18T01:38:49.532Z,-8.40
2022-12-18T01:41:17.480Z,-8.40
2022-12-18T01:44:00.519Z,-8.40
2022-12-18T01:46:28.047Z,-8.40
2022-12-18T01:48:58.538Z,-8.40
2022-12-18T01:51:26.635Z,-8.40
2022-12-18T01:53:53.493Z,-8.40
2022-12-18T01:56:21.140Z,-8.50
2022-12-18T01:58:55.596Z,-8.40
2022-12-18T02:01:23.743Z,-8.50
2022-12-18T02:03:50.595Z,-8.50
2022-12-18T02:06:21.722Z,-8.40
2022-12-18T02:08:48.458Z,-8.50
2022-12-18T02:11:25.324Z,-8.50
2022-12-18T02:14:07.272Z,-8.50
2022-12-18T02:16:38.459Z,-8.50
2022-12-18T02:19:12.753Z,-8.50
2022-12-18T02:21:45.865Z,-8.50
2022-12-18T02:24:13.403Z,-8.50
2022-12-18T02:26:46.961Z,-8.50
2022-12-18T02:29:25.125Z,-8.50
2022-12-18T02:31:53.601Z,-8.50
2022-12-18T02:34:23.042Z,-8.50
2022-12-18T02:36:50.858Z,-8.60
2022-12-18T02:39:18.779Z,-8.60
2022-12-18T02:41:57.589Z,-8.60
2022-12-18T02:44:25.327Z,-8.50
2022-12-18T02:46:53.042Z,-8.60
2022-12-18T02:49:26.212Z,-8.60
2022-12-18T02:51:55.992Z,-8.60
2022-12-18T02:54:35.297Z,-8.60
2022-12-18T02:57:11.590Z,-8.60
2022-12-18T02:59:42.569Z,-8.60
2022-12-18T03:02:21.757Z,-8.60
2022-12-18T03:04:52.110Z,-8.60
2022-12-18T03:07:23.021Z,-8.70
2022-12-18T03:09:52.748Z,-8.70
2022-12-18T03:12:31.702Z,-8.70
2022-12-18T03:15:04.666Z,-8.80
2022-12-18T03:17:32.761Z,-8.80
2022-12-18T03:20:03.091Z,-8.80
2022-12-18T03:22:33.695Z,-8.80
2022-12-18T03:25:01.976Z,-8.80
2022-12-18T03:27:31.455Z,-8.80
2022-12-18T03:30:08.250Z,-8.80
2022-12-18T03:32:42.122Z,-8.80
2022-12-18T03:35:11.618Z,-8.80
2022-12-18T03:37:38.475Z,-8.80
2022-12-18T03:40:06.435Z,-8.80
2022-12-18T03:42:45.685Z,-8.80
2022-12-18T03:45:19.593Z,-8.80
2022-12-18T03:47:47.063Z,-8.80
2022-12-18T03:50:17.676Z,-8.80
2022-12-18T03:52:55.784Z,-8.80
2022-12-18T03:55:23.915Z,-8.80
2022-12-18T03:57:59.615Z,-8.80
2022-12-18T04:00:31.911Z,-8.80
2022-12-18T04:03:06.958Z,-8.80
2022-12-18T04:05:42.035Z,-8.80
2022-12-18T04:08:09.205Z,-8.90
2022-12-18T04:10:39.676Z,-8.90
2022-12-18T04:13:06.581Z,-8.90
2022-12-18T04:15:35.726Z,-8.90
2022-12-18T04:18:03.809Z,-8.90
2022-12-18T04:20:37.930Z,-8.90
2022-12-18T04:23:04.846Z,-8.90
2022-12-18T04:25:31.915Z,-8.90
2022-12-18T04:28:07.915Z,-8.90
2022-12-18T04:30:36.050Z,-8.90
2022-12-18T04:33:02.822Z,-8.90
2022-12-18T04:35:31.347Z,-9.00
2022-12-18T04:37:58.064Z,-9.00
2022-12-18T04:40:24.868Z,-9.00
2022-12-18T04:42:52.275Z,-9.10
2022-12-18T04:45:19.348Z,-9.00
2022-12-18T04:47:46.056Z,-9.10
2022-12-18T04:50:13.053Z,-9.00
2022-12-18T04:52:39.793Z,-9.00
2022-12-18T04:55:06.643Z,-9.00
2022-12-18T04:57:33.315Z,-9.00
2022-12-18T05:00:00.053Z,-9.00
2022-12-18T05:02:29.272Z,-9.00
2022-12-18T05:04:56.142Z,-9.10
2022-12-18T05:07:22.897Z,-9.00
2022-12-18T05:09:49.668Z,-9.00
2022-12-18T05:12:16.426Z,-9.00
2022-12-18T05:14:43.132Z,-9.00
2022-12-18T05:17:10.036Z,-9.00
2022-12-18T05:19:36.732Z,-9.00
2022-12-18T05:22:03.459Z,-9.00
2022-12-18T05:24:30.244Z,-9.10
2022-12-18T05:26:56.962Z,-9.00
2022-12-18T05:29:23.771Z,-9.00
2022-12-18T05:31:50.518Z,-9.00
2022-12-18T05:34:17.631Z,-9.00
2022-12-18T05:36:44.237Z,-9.00
2022-12-18T05:39:11.275Z,-9.00
2022-12-18T05:41:38.835Z,-9.00
2022-12-18T05:44:05.871Z,-8.90
2022-12-18T05:46:33.292Z,-9.00
2022-12-18T05:49:01.597Z,-9.00
2022-12-18T05:51:28.400Z,-9.00
2022-12-18T05:53:55.687Z,-9.00
2022-12-18T05:56:23.294Z,-8.90
2022-12-18T05:58:52.936Z,-9.00
2022-12-18T06:01:22.234Z,-8.90
2022-12-18T06:03:49.479Z,-9.00
2022-12-18T06:06:21.711Z,-8.90
2022-12-18T06:08:48.963Z,-8.90
2022-12-18T06:11:18.751Z,-8.90
2022-12-18T06:13:45.597Z,-8.90
2022-12-18T06:16:12.364Z,-8.90
2022-12-18T06:18:39.063Z,-8.90
2022-12-18T06:21:05.894Z,-8.90
2022-12-18T06:23:32.599Z,-8.90
2022-12-18T06:25:59.188Z,-8.90
2022-12-18T06:28:25.793Z,-8.90
2022-12-18T06:30:52.518Z,-9.00
2022-12-18T06:33:19.352Z,-9.00
2022-12-18T06:35:46.029Z,-9.10
2022-12-18T06:38:12.764Z,-9.10
2022-12-18T06:40:40.221Z,-9.10
2022-12-18T06:43:06.974Z,-9.10
2022-12-18T06:45:33.703Z,-9.10
2022-12-18T06:48:00.398Z,-9.10
2022-12-18T06:50:27.369Z,-9.20
2022-12-18T06:52:53.992Z,-9.20
2022-12-18T06:55:20.651Z,-9.20
2022-12-18T06:57:47.395Z,-9.20
2022-12-18T07:00:14.666Z,-9.20
2022-12-18T07:02:41.512Z,-9.20
2022-12-18T07:05:10.924Z,-9.20
2022-12-18T07:07:38.201Z,-9.10
2022-12-18T07:10:05.257Z,-9.20
2022-12-18T07:12:31.887Z,-9.10
2022-12-18T07:14:58.497Z,-9.20
2022-12-18T07:17:25.376Z,-9.10
2022-12-18T07:19:51.985Z,-9.10
2022-12-18T07:22:18.664Z,-9.10
2022-12-18T07:24:45.383Z,-9.10
2022-12-18T07:27:12.030Z,-9.10
2022-12-18T07:29:38.683Z,-9.10
2022-12-18T07:32:06.567Z,-9.10
2022-12-18T07:34:35.887Z,-9.10
2022-12-18T07:37:04.044Z,-9.10
2022-12-18T07:39:30.678Z,-9.10
2022-12-18T07:42:16.145Z,-9.10
2022-12-18T07:44:43.776Z,-9.00
2022-12-18T07:47:12.172Z,-9.00
2022-12-18T07:49:39.124Z,-9.10
2022-12-18T07:52:05.892Z,-9.00
2022-12-18T07:54:32.568Z,-9.00
2022-12-18T07:56:59.217Z,-9.00
2022-12-18T07:59:25.967Z,-8.90
2022-12-18T08:01:52.775Z,-8.90
2022-12-18T08:04:19.879Z,-8.80
2022-12-18T08:06:48.307Z,-8.80
2022-12-18T08:09:15.216Z,-8.80
2022-12-18T08:11:41.872Z,-8.70
2022-12-18T08:14:08.923Z,-8.70
2022-12-18T08:16:35.529Z,-8.60
2022-12-18T08:19:02.291Z,-8.60
2022-12-18T08:21:29.978Z,-8.60
2022-12-18T08:23:58.062Z,-8.50
2022-12-18T08:26:25.171Z,-8.40
2022-12-18T08:28:51.963Z,-8.30
2022-12-18T08:31:19.249Z,-8.20
2022-12-18T08:33:46.613Z,-8.20
2022-12-18T08:36:13.706Z,-8.10
2022-12-18T08:38:41.043Z,-8.10
2022-12-18T08:41:10.269Z,-8.00
2022-12-18T08:43:55.859Z,-7.90
2022-12-18T08:46:23.414Z,-7.80
2022-12-18T08:48:51.452Z,-7.80
2022-12-18T08:51:18.510Z,-7.70
2022-12-18T08:53:45.477Z,-7.70
2022-12-18T08:56:12.715Z,-7.60
2022-12-18T08:58:39.805Z,-7.50
2022-12-18T09:01:07.775Z,-7.50
2022-12-18T09:03:34.610Z,-7.40
2022-12-18T09:06:01.580Z,-7.40
2022-12-18T09:08:28.995Z,-7.30
2022-12-18T09:10:56.086Z,-7.20
2022-12-18T09:13:23.165Z,-7.10
2022-12-18T09:15:54.318Z,-7.00
2022-12-18T09:18:21.742Z,-7.00
2022-12-18T09:20:48.452Z,-6.90
2022-12-18T09:23:15.548Z,-6.90
2022-12-18T09:25:42.373Z,-6.90
2022-12-18T09:28:14.228Z,-6.90
2022-12-18T09:30:50.481Z,-6.80
2022-12-18T09:33:17.637Z,-6.80
2022-12-18T09:35:45.404Z,-6.70
2022-12-18T09:38:13.582Z,-6.60
2022-12-18T09:40:48.920Z,-6.60
2022-12-18T09:43:18.940Z,-6.50
2022-12-18T09:45:48.396Z,-6.50
2022-12-18T09:48:19.086Z,-6.40
2022-12-18T09:50:46.137Z,-6.40
2022-12-18T09:53:24.299Z,-6.40
2022-12-18T09:55:51.908Z,-6.30
2022-12-18T09:58:21.812Z,-6.30
2022-12-18T10:00:48.537Z,-6.30
2022-12-18T10:03:15.974Z,-6.20
2022-12-18T10:05:51.931Z,-6.20
2022-12-18T10:08:38.866Z,-6.10
2022-12-18T10:11:21.043Z,-6.00
2022-12-18T10:13:57.852Z,-5.90
2022-12-18T10:16:41.194Z,-5.80
2022-12-18T10:19:14.063Z,-5.70
2022-12-18T10:21:50.794Z,-5.60
2022-12-18T10:24:20.638Z,-5.50
2022-12-18T10:26:47.777Z,-5.40
2022-12-18T10:29:15.819Z,-5.30
2022-12-18T10:31:42.530Z,-5.20
2022-12-18T10:34:16.082Z,-5.20
2022-12-18T10:36:43.182Z,-5.10
2022-12-18T10:39:20.914Z,-5.00
2022-12-18T10:41:47.874Z,-4.90
2022-12-18T10:44:19.757Z,-4.80
2022-12-18T10:46:48.251Z,-4.80
2022-12-18T10:49:24.234Z,-4.70
2022-12-18T10:51:52.028Z,-4.70
2022-12-18T10:54:22.128Z,-4.60
2022-12-18T10:56:49.318Z,-4.50
2022-12-18T10:59:18.238Z,-4.40
2022-12-18T11:01:48.403Z,-4.30
2022-12-18T11:04:33.594Z,-4.20
2022-12-18T11:07:04.746Z,-4.10
2022-12-18T11:09:32.678Z,-4.00
2022-12-18T11:12:00.459Z,-4.00
2022-12-18T11:14:32.025Z,-3.90
2022-12-18T11:19:52.897Z,-3.80
2022-12-18T11:22:27.164Z,-3.70
2022-12-18T11:25:30.158Z,-3.70
2022-12-18T11:27:48.601Z,-3.60
2022-12-18T11:30:23.498Z,-3.50
2022-12-18T11:32:53.094Z,-3.50
2022-12-18T11:35:38.700Z,-3.40
2022-12-18T11:38:10.966Z,-3.40
2022-12-18T11:40:41.325Z,-3.30
2022-12-18T11:43:13.981Z,-3.20
2022-12-18T11:45:48.082Z,-3.10
2022-12-18T11:48:17.624Z,-3.10
2022-12-18T11:50:47.573Z,-3.10
2022-12-18T11:53:14.514Z,-3.10
2022-12-18T11:56:00.208Z,-3.00
2022-12-18T11:58:46.117Z,-3.00
2022-12-18T12:01:31.733Z,-3.00
2022-12-18T12:04:03.562Z,-3.00
2022-12-18T12:06:36.643Z,-3.00
2022-12-18T12:09:09.800Z,-2.90
2022-12-18T12:12:08.986Z,-2.90
2022-12-18T12:14:36.066Z,-2.90
2022-12-18T12:17:23.066Z,-2.80
2022-12-18T12:20:00.022Z,-2.80
2022-12-18T12:22:26.750Z,-2.80
2022-12-18T12:24:54.176Z,-2.80
2022-12-18T12:27:26.871Z,-2.80
2022-12-18T12:30:03.394Z,-2.80
2022-12-18T12:32:36.299Z,-2.70
2022-12-18T12:35:17.266Z,-2.70
2022-12-18T12:38:02.515Z,-2.60
2022-12-18T12:40:53.775Z,-2.60
2022-12-18T12:43:29.355Z,-2.60
2022-12-18T12:46:01.549Z,-2.60
2022-12-18T12:48:34.003Z,-2.50
2022-12-18T12:51:24.309Z,-2.50
2022-12-18T12:53:53.019Z,-2.40
2022-12-18T12:56:21.140Z,-2.40
2022-12-18T12:58:53.381Z,-2.30
2022-12-18T13:01:23.842Z,-2.30
2022-12-18T13:03:51.124Z,-2.20
2022-12-18T13:06:21.646Z,-2.20
2022-12-18T13:08:53.505Z,-2.20
2022-12-18T13:11:59.743Z,-2.20
2022-12-18T13:14:40.723Z,-2.20
2022-12-18T13:17:28.454Z,-2.20
2022-12-18T13:20:24.162Z,-2.20
2022-12-18T13:22:51.817Z,-2.20
2022-12-18T13:25:38.613Z,-2.20
2022-12-18T13:28:19.594Z,-2.20
2022-12-18T13:30:50.867Z,-2.20
2022-12-18T13:33:23.247Z,-2.20
2022-12-18T13:36:13.097Z,-2.30
2022-12-18T13:38:40.772Z,-2.30
2022-12-18T13:41:19.955Z,-2.30
2022-12-18T13:43:48.291Z,-2.30
2022-12-18T13:46:18.768Z,-2.20
2022-12-18T13:49:02.554Z,-2.30
2022-12-18T13:51:30.529Z,-2.20
2022-12-18T13:54:12.069Z,-2.20
2022-12-18T13:56:43.673Z,-2.20
2022-12-18T13:59:18.572Z,-2.30
2022-12-18T14:01:46.445Z,-2.20
2022-12-18T14:04:19.339Z,-2.30
2022-12-18T14:06:46.923Z,-2.20
2022-12-18T14:09:19.038Z,-2.20
2022-12-18T14:11:49.311Z,-2.20
2022-12-18T14:14:17.418Z,-2.20
2022-12-18T14:16:44.461Z,-2.20
2022-12-18T14:19:17.896Z,-2.30
2022-12-18T14:21:48.830Z,-2.20
2022-12-18T14:24:19.387Z,-2.30
2022-12-18T14:26:47.549Z,-2.30
2022-12-18T14:29:26.039Z,-2.30
2022-12-18T14:32:16.859Z,-2.30
2022-12-18T14:34:49.133Z,-2.30
2022-12-18T14:37:17.622Z,-2.30
2022-12-18T14:39:55.049Z,-2.30
2022-12-18T14:42:21.808Z,-2.30
2022-12-18T14:45:13.020Z,-2.40
2022-12-18T14:47:35.407Z,-2.30
2022-12-18T14:50:02.083Z,-2.40
2022-12-18T14:52:30.020Z,-2.40
2022-12-18T14:54:56.861Z,-2.40
2022-12-18T14:57:30.068Z,-2.40
2022-12-18T15:00:04.977Z,-2.40
2022-12-18T15:02:32.211Z,-2.40
2022-12-18T15:05:12.729Z,-2.40
2022-12-18T15:07:50.481Z,-2.40
2022-12-18T15:10:18.737Z,-2.40
2022-12-18T15:12:47.264Z,-2.40
2022-12-18T15:15:32.882Z,-2.40
2022-12-18T15:18:07.620Z,-2.40
2022-12-18T15:20:40.394Z,-2.40
2022-12-18T15:23:18.276Z,-2.40
2022-12-18T15:25:45.299Z,-2.30
2022-12-18T15:28:20.336Z,-2.20
2022-12-18T15:31:00.985Z,-2.20
2022-12-18T15:33:31.265Z,-2.20
2022-12-18T15:35:59.224Z,-2.10
2022-12-18T15:38:26.447Z,-2.10
2022-12-18T15:40:53.750Z,-2.10
2022-12-18T15:43:36.590Z,-2.00
2022-12-18T15:46:03.371Z,-2.00
2022-12-18T15:48:30.132Z,-2.10
2022-12-18T15:50:58.170Z,-2.00
2022-12-18T15:53:34.677Z,-2.00
2022-12-18T15:56:20.333Z,-2.00
2022-12-18T15:58:47.016Z,-2.00
2022-12-18T16:01:14.076Z,-1.90
2022-12-18T16:03:41.226Z,-1.90
2022-12-18T16:06:10.081Z,-1.90
2022-12-18T16:08:36.797Z,-2.00
2022-12-18T16:11:03.517Z,-2.00
2022-12-18T16:13:30.400Z,-2.00
2022-12-18T16:15:57.183Z,-2.00
2022-12-18T16:18:23.953Z,-2.00
2022-12-18T16:20:50.683Z,-2.00
2022-12-18T16:23:17.525Z,-2.00
2022-12-18T16:25:44.242Z,-2.00
2022-12-18T16:28:10.981Z,-2.10
2022-12-18T16:30:38.636Z,-2.00
2022-12-18T16:33:05.915Z,-2.00
2022-12-18T16:35:34.551Z,-2.00
2022-12-18T16:38:01.216Z,-2.00
2022-12-18T16:40:28.004Z,-2.00
2022-12-18T16:42:54.780Z,-2.00
2022-12-18T16:45:21.526Z,-2.00
2022-12-18T16:47:48.405Z,-2.00
2022-12-18T16:50:15.056Z,-1.90
2022-12-18T16:52:41.886Z,-1.90
2022-12-18T16:55:09.024Z,-2.00
2022-12-18T16:57:35.787Z,-2.00
2022-12-18T17:00:05.539Z,-1.90
2022-12-18T17:02:33.494Z,-1.90
2022-12-18T17:05:00.602Z,-1.90
2022-12-18T17:07:28.187Z,-1.90
2022-12-18T17:09:54.949Z,-1.90
2022-12-18T17:12:21.939Z,-1.90
2022-12-18T17:14:48.698Z,-1.90
2022-12-18T17:17:23.739Z,-1.90
2022-12-18T17:19:51.956Z,-1.90
2022-12-18T17:22:19.033Z,-1.90
2022-12-18T17:24:46.443Z,-1.90
2022-12-18T17:27:13.092Z,-1.90
2022-12-18T17:29:45.384Z,-1.90
2022-12-18T17:32:13.767Z,-1.90
2022-12-18T17:34:44.724Z,-1.90
2022-12-18T17:37:11.442Z,-1.90
2022-12-18T17:39:38.338Z,-1.90
2022-12-18T17:42:05.335Z,-1.90
2022-12-18T17:44:34.152Z,-1.90
2022-12-18T17:47:01.128Z,-1.90
2022-12-18T17:49:27.849Z,-1.80
2022-12-18T17:51:54.575Z,-1.70
2022-12-18T17:54:21.362Z,-1.60
2022-12-18T17:56:48.095Z,-1.50
2022-12-18T17:59:14.771Z,-1.30
2022-12-18T18:01:45.316Z,-1.20
2022-12-18T18:04:13.215Z,-1.20
2022-12-18T18:06:40.000Z,-1.10
2022-12-18T18:09:08.249Z,-1.10
2022-12-18T18:12:02.910Z,-1.10
2022-12-18T18:14:30.110Z,-0.90
2022-12-18T18:16:56.917Z,-0.90
2022-12-18T18:19:29.048Z,-0.80
2022-12-18T18:21:57.120Z,-0.80
2022-12-18T18:24:25.678Z,-0.80
2022-12-18T18:26:52.598Z,-0.80
2022-12-18T18:29:20.534Z,-0.80
2022-12-18T18:31:48.028Z,-0.80
2022-12-18T18:34:19.451Z,-0.80
2022-12-18T18:36:46.641Z,-0.80
2022-12-18T18:39:14.233Z,-0.80
2022-12-18T18:41:41.155Z,-0.80
2022-12-18T18:44:12.055Z,-0.80
2022-12-18T18:46:38.780Z,-0.80
2022-12-18T18:49:05.695Z,-0.70
2022-12-18T18:51:35.021Z,-0.70
2022-12-18T18:54:01.912Z,-0.70
2022-12-18T18:59:15.746Z,-0.60
2022-12-18T19:01:43.060Z,-0.50
2022-12-18T19:04:09.957Z,-0.50
2022-12-18T19:06:36.676Z,-0.50
2022-12-18T19:09:05.010Z,-0.50
2022-12-18T19:11:51.319Z,-0.60
2022-12-18T19:14:18.497Z,-0.60
2022-12-18T19:16:45.445Z,-0.60
2022-12-18T19:19:13.307Z,-0.60
2022-12-18T19:21:40.741Z,-0.60
2022-12-18T19:24:07.730Z,-0.60
2022-12-18T19:26:36.336Z,-0.60
2022-12-18T19:29:04.153Z,-0.60
2022-12-18T19:31:35.712Z,-0.60
2022-12-18T19:34:03.738Z,-0.70
2022-12-18T19:36:31.109Z,-0.70
2022-12-18T19:38:59.375Z,-0.70
2022-12-18T19:41:29.127Z,-0.70
2022-12-18T19:43:58.485Z,-0.80
2022-12-18T19:46:25.493Z,-0.80
2022-12-18T19:48:52.458Z,-0.80
2022-12-18T19:51:22.434Z,-0.80
2022-12-18T19:53:54.984Z,-0.80
2022-12-18T19:56:26.266Z,-0.80
2022-12-18T19:58:53.486Z,-0.80
2022-12-18T20:01:21.215Z,-0.80
2022-12-18T20:03:48.543Z,-0.80
2022-12-18T20:06:35.847Z,-0.80
2022-12-18T20:09:07.156Z,-0.80
2022-12-18T20:11:38.394Z,-0.80
2022-12-18T20:14:09.789Z,-0.80
2022-12-18T20:16:38.031Z,-0.80
2022-12-18T20:19:05.010Z,-0.80
2022-12-18T20:21:31.853Z,-0.80
2022-12-18T20:24:00.006Z,-0.80
2022-12-18T20:26:29.603Z,-0.80
2022-12-18T20:28:58.260Z,-0.70
2022-12-18T20:31:25.217Z,-0.70
2022-12-18T20:33:53.358Z,-0.70
2022-12-18T20:36:23.538Z,-0.70
2022-12-18T20:38:54.714Z,-0.70
2022-12-18T20:41:24.422Z,-0.70
2022-12-18T20:43:51.266Z,-0.70
2022-12-18T20:46:18.480Z,-0.70
2022-12-18T20:48:45.554Z,-0.70
2022-12-18T20:51:14.022Z,-0.70
2022-12-18T20:53:42.169Z,-0.60
2022-12-18T20:56:11.037Z,-0.60
2022-12-18T20:58:38.081Z,-0.60
2022-12-18T21:01:10.409Z,-0.60
2022-12-18T21:03:38.271Z,-0.60
2022-12-18T21:06:05.193Z,-0.50
2022-12-18T21:08:32.296Z,-0.50
2022-12-18T21:11:50.373Z,-0.40
2022-12-18T21:14:17.269Z,-0.50
2022-12-18T21:16:44.542Z,-0.50
2022-12-18T21:19:12.809Z,-0.40
2022-12-18T21:21:42.619Z,-0.40
2022-12-18T21:24:09.919Z,-0.40
2022-12-18T21:26:43.388Z,-0.40
2022-12-18T21:29:13.768Z,-0.40
2022-12-18T21:31:43.144Z,-0.30
2022-12-18T21:34:14.153Z,-0.30
2022-12-18T21:36:44.779Z,-0.30
2022-12-18T21:39:14.608Z,-0.30
2022-12-18T21:42:06.237Z,-0.30
2022-12-18T21:44:38.484Z,-0.20
2022-12-18T21:47:20.122Z,-0.20
2022-12-18T21:49:51.818Z,-0.20
2022-12-18T21:52:18.879Z,-0.20
2022-12-18T21:54:45.896Z,-0.20
2022-12-18T21:57:15.974Z,-0.20
2022-12-18T21:59:43.732Z,-0.20
2022-12-18T22:02:15.082Z,-0.10
2022-12-18T22:04:46.549Z,-0.10
2022-12-18T22:07:17.150Z,-0.10
2022-12-18T22:09:44.205Z,-0.10
2022-12-18T22:12:13.308Z,-0.10
2022-12-18T22:14:40.259Z,-0.10
2022-12-18T22:17:07.434Z,-0.10
2022-12-18T22:19:43.115Z,0.00
2022-12-18T22:22:10.720Z,0.00
2022-12-18T22:24:41.579Z,0.00
2022-12-18T22:27:09.332Z,0.00
2022-12-18T22:29:55.850Z,0.00
2022-12-18T22:32:31.137Z,0.00
2022-12-18T22:35:08.026Z,0.10
2022-12-18T22:37:42.328Z,0.10
2022-12-18T22:40:12.854Z,0.00
2022-12-18T22:42:42.908Z,0.10
2022-12-18T22:45:10.191Z,0.10
2022-12-18T22:47:42.294Z,0.10
2022-12-18T22:50:11.449Z,0.10
2022-12-18T22:52:38.382Z,0.10
2022-12-18T22:55:06.588Z,0.10
2022-12-18T22:57:48.766Z,0.10
2022-12-18T23:00:23.773Z,0.20
2022-12-18T23:02:59.341Z,0.20
2022-12-18T23:05:28.380Z,0.20
2022-12-18T23:07:55.255Z,0.20
2022-12-18T23:10:22.646Z,0.20
2022-12-18T23:12:49.441Z,0.20
2022-12-18T23:15:19.521Z,0.20
2022-12-18T23:17:55.083Z,0.30
2022-12-18T23:20:27.768Z,0.30
2022-12-18T23:22:55.892Z,0.30
2022-12-18T23:25:22.986Z,0.30
2022-12-18T23:27:49.925Z,0.30
2022-12-18T23:30:16.802Z,0.40
2022-12-18T23:32:43.672Z,0.40
2022-12-18T23:35:10.815Z,0.40
2022-12-18T23:37:59.441Z,0.40
2022-12-18T23:40:27.112Z,0.40
2022-12-18T23:42:57.051Z,0.40
2022-12-18T23:45:26.661Z,0.40
2022-12-18T23:47:53.719Z,0.40
2022-12-18T23:50:27.734Z,0.40
2022-12-18T23:52:57.090Z,0.40
2022-12-18T23:55:29.027Z,0.50
2022-12-18T23:57:56.066Z,0.40
